createdAt,value
2022-09-12T00:00:37.135Z,22.43
2022-09-12T00:03:06.148Z,22.43
2022-09-12T00:05:33.570Z,22.45
2022-09-12T00:08:01.052Z,22.44
2022-09-12T00:10:29.015Z,22.47
2022-09-12T00:12:56.407Z,22.47
2022-09-12T00:15:23.787Z,22.47
2022-09-12T00:17:51.166Z,22.45
2022-09-12T00:20:20.194Z,22.48
2022-09-12T00:22:47.551Z,22.45
2022-09-12T00:25:15.040Z,22.48
2022-09-12T00:27:42.566Z,22.42
2022-09-12T00:30:10.673Z,22.41
2022-09-12T00:32:38.074Z,22.44
2022-09-12T00:35:06.515Z,22.40
2022-09-12T00:37:36.286Z,22.43
2022-09-12T00:40:04.046Z,22.42
2022-09-12T00:42:31.979Z,22.42
2022-09-12T00:44:59.431Z,22.43
2022-09-12T00:47:29.751Z,22.47
2022-09-12T00:50:05.368Z,22.49
2022-09-12T00:52:40.248Z,22.44
2022-09-12T00:55:11.133Z,22.49
2022-09-12T00:57:43.733Z,22.47
2022-09-12T01:00:14.035Z,22.50
2022-09-12T01:02:42.703Z,22.50
2022-09-12T01:05:11.356Z,22.49
2022-09-12T01:07:40.670Z,22.49
2022-09-12T01:10:09.966Z,22.49
2022-09-12T01:12:40.272Z,22.49
2022-09-12T01:15:08.467Z,22.48
2022-09-12T01:17:49.015Z,22.48
2022-09-12T01:20:45.139Z,22.47
2022-09-12T01:23:39.721Z,22.50
2022-09-12T01:26:31.000Z,22.46
2022-09-12T01:29:21.933Z,22.46
2022-09-12T01:31:59.071Z,22.45
2022-09-12T01:34:32.797Z,22.45
2022-09-12T01:37:11.509Z,22.43
2022-09-12T01:39:47.086Z,22.40
2022-09-12T01:42:21.094Z,22.42
2022-09-12T01:44:56.770Z,22.41
2022-09-12T01:47:33.772Z,22.39
2022-09-12T01:50:05.948Z,22.42
2022-09-12T01:52:39.850Z,22.38
2022-09-12T01:55:11.608Z,22.40
2022-09-12T01:57:44.939Z,22.39
2022-09-12T02:00:13.542Z,22.41
2022-09-12T02:02:47.032Z,22.39
2022-09-12T02:05:21.106Z,22.39
2022-09-12T02:07:52.680Z,22.41
2022-09-12T02:10:23.640Z,22.36
2022-09-12T02:12:57.207Z,22.35
2022-09-12T02:15:29.342Z,22.32
2022-09-12T02:18:00.834Z,22.33
2022-09-12T02:20:47.445Z,22.33
2022-09-12T02:23:20.958Z,22.37
2022-09-12T02:25:54.359Z,22.07
2022-09-12T02:28:26.261Z,21.87
2022-09-12T02:31:04.362Z,22.02
2022-09-12T02:33:43.130Z,22.21
2022-09-12T02:36:16.032Z,22.28
2022-09-12T02:38:46.258Z,22.27
2022-09-12T02:41:17.662Z,22.20
2022-09-12T02:43:45.364Z,22.18
2022-09-12T02:46:22.602Z,22.23
2022-09-12T02:48:51.547Z,22.21
2022-09-12T02:51:23.517Z,22.23
2022-09-12T02:53:51.631Z,22.20
2022-09-12T02:56:23.947Z,22.20
2022-09-12T02:58:52.561Z,22.22
2022-09-12T03:01:34.089Z,22.28
2022-09-12T03:04:22.318Z,22.23
2022-09-12T03:07:01.905Z,21.89
2022-09-12T03:09:36.746Z,21.33
2022-09-12T03:12:15.072Z,21.97
2022-09-12T03:14:54.441Z,22.14
2022-09-12T03:17:30.133Z,22.17
2022-09-12T03:20:03.527Z,22.12
2022-09-12T03:22:39.072Z,22.21
2022-09-12T03:25:17.196Z,22.23
2022-09-12T03:27:52.377Z,22.27
2022-09-12T03:30:19.877Z,22.22
2022-09-12T03:32:49.664Z,22.06
2022-09-12T03:35:22.835Z,22.15
2022-09-12T03:37:51.838Z,22.17
2022-09-12T03:40:19.797Z,22.20
2022-09-12T03:42:47.271Z,22.12
2022-09-12T03:45:16.015Z,22.15
2022-09-12T03:47:43.483Z,22.25
2022-09-12T03:50:11.265Z,22.28
2022-09-12T03:52:40.181Z,22.03
2022-09-12T03:55:08.095Z,22.01
2022-09-12T03:57:36.023Z,22.00
2022-09-12T04:00:04.592Z,22.07
2022-09-12T04:02:39.992Z,22.02
2022-09-12T04:05:07.862Z,22.06
2022-09-12T04:07:35.420Z,22.08
2022-09-12T04:10:04.823Z,22.12
2022-09-12T04:12:32.405Z,22.16
2022-09-12T04:14:59.849Z,22.24
2022-09-12T04:17:29.560Z,22.21
2022-09-12T04:19:57.152Z,22.02
2022-09-12T04:22:24.742Z,21.89
2022-09-12T04:24:52.285Z,21.94
2022-09-12T04:27:21.449Z,21.87
2022-09-12T04:29:48.885Z,21.87
2022-09-12T04:32:16.470Z,21.83
2022-09-12T04:34:44.105Z,21.79
2022-09-12T04:37:11.565Z,21.66
2022-09-12T04:39:39.663Z,21.83
2022-09-12T04:42:07.232Z,21.81
2022-09-12T04:44:36.235Z,21.97
2022-09-12T04:47:03.722Z,21.81
2022-09-12T04:49:31.694Z,21.85
2022-09-12T04:51:59.182Z,21.88
2022-09-12T04:54:26.836Z,22.02
2022-09-12T04:56:54.372Z,22.13
2022-09-12T04:59:22.763Z,22.24
2022-09-12T05:01:51.636Z,22.18
2022-09-12T05:04:19.264Z,22.22
2022-09-12T05:06:46.725Z,22.25
2022-09-12T05:09:14.665Z,22.02
2022-09-12T05:14:31.328Z,20.67
2022-09-12T05:17:00.455Z,20.72
2022-09-12T05:19:28.254Z,20.45
2022-09-12T05:21:55.638Z,21.68
2022-09-12T05:24:23.302Z,22.02
2022-09-12T05:26:50.908Z,22.10
2022-09-12T05:29:18.319Z,22.26
2022-09-12T05:31:45.704Z,22.25
2022-09-12T05:34:14.665Z,22.23
2022-09-12T05:36:42.046Z,22.32
2022-09-12T05:39:09.646Z,22.32
2022-09-12T05:41:37.180Z,22.29
2022-09-12T05:44:06.655Z,22.18
2022-09-12T05:46:37.973Z,22.28
2022-09-12T05:49:07.593Z,22.34
2022-09-12T05:51:38.201Z,22.26
2022-09-12T05:54:07.794Z,22.22
2022-09-12T05:56:39.097Z,22.21
2022-09-12T05:59:11.205Z,22.19
2022-09-12T06:01:38.763Z,22.30
2022-09-12T06:04:06.981Z,22.25
2022-09-12T06:06:39.228Z,22.23
2022-09-12T06:09:06.967Z,22.26
2022-09-12T06:11:36.042Z,22.25
2022-09-12T06:14:03.992Z,22.32
2022-09-12T06:16:33.312Z,22.36
2022-09-12T06:19:02.280Z,22.52
2022-09-12T06:21:30.364Z,22.61
2022-09-12T06:23:59.470Z,22.59
2022-09-12T06:26:27.582Z,22.50
2022-09-12T06:28:57.065Z,22.61
2022-09-12T06:31:26.811Z,22.56
2022-09-12T06:33:55.245Z,22.54
2022-09-12T06:36:24.981Z,22.60
2022-09-12T06:38:55.236Z,22.49
2022-09-12T06:41:25.419Z,22.45
2022-09-12T06:43:53.974Z,22.43
2022-09-12T06:46:21.908Z,22.39
2022-09-12T06:48:49.604Z,22.42
2022-09-12T06:51:19.172Z,22.42
2022-09-12T06:53:47.973Z,22.47
2022-09-12T06:56:18.293Z,22.49
2022-09-12T06:58:48.956Z,22.40
2022-09-12T07:01:18.259Z,21.98
2022-09-12T07:03:49.613Z,21.38
2022-09-12T07:06:18.774Z,21.55
2022-09-12T07:08:47.265Z,21.64
2022-09-12T07:11:18.662Z,21.04
2022-09-12T07:13:49.005Z,21.24
2022-09-12T07:16:19.636Z,21.20
2022-09-12T07:18:51.263Z,20.83
2022-09-12T07:21:19.043Z,20.81
2022-09-12T07:23:46.884Z,20.80
2022-09-12T07:26:16.498Z,20.80
2022-09-12T07:28:44.715Z,21.00
2022-09-12T07:31:15.968Z,20.97
2022-09-12T07:33:44.275Z,20.75
2022-09-12T07:36:13.336Z,20.59
2022-09-12T07:38:41.318Z,20.58
2022-09-12T07:41:12.631Z,20.60
2022-09-12T07:43:40.028Z,20.45
2022-09-12T07:46:07.487Z,20.10
2022-09-12T07:48:36.649Z,20.19
2022-09-12T07:51:06.678Z,20.24
2022-09-12T07:53:35.778Z,20.40
2022-09-12T07:56:04.999Z,20.53
2022-09-12T07:58:34.194Z,20.71
2022-09-12T08:01:06.161Z,20.83
2022-09-12T08:03:33.578Z,20.76
2022-09-12T08:06:07.289Z,20.71
2022-09-12T08:08:34.963Z,20.44
2022-09-12T08:11:05.098Z,20.37
2022-09-12T08:13:34.829Z,20.43
2022-09-12T08:16:03.229Z,20.38
2022-09-12T08:18:31.832Z,20.28
2022-09-12T08:20:59.538Z,20.27
2022-09-12T08:23:28.999Z,20.47
2022-09-12T08:25:56.760Z,20.21
2022-09-12T08:28:25.065Z,20.20
2022-09-12T08:30:52.559Z,20.15
2022-09-12T08:33:20.474Z,20.18
2022-09-12T08:35:48.083Z,20.43
2022-09-12T08:38:15.485Z,20.14
2022-09-12T08:40:51.052Z,20.34
2022-09-12T08:43:31.496Z,20.53
2022-09-12T08:46:08.814Z,20.21
2022-09-12T08:48:36.799Z,20.20
2022-09-12T08:51:04.883Z,20.50
2022-09-12T08:53:35.505Z,20.48
2022-09-12T08:56:09.274Z,20.46
2022-09-12T08:58:40.423Z,20.60
2022-09-12T09:01:14.772Z,21.09
2022-09-12T09:03:57.248Z,21.49
2022-09-12T09:06:38.607Z,21.68
2022-09-12T09:09:16.609Z,21.72
2022-09-12T09:12:00.859Z,21.52
2022-09-12T09:14:49.936Z,21.45
2022-09-12T09:17:23.300Z,21.67
2022-09-12T09:19:58.414Z,21.75
2022-09-12T09:22:42.515Z,21.97
2022-09-12T09:25:20.843Z,21.30
2022-09-12T09:27:58.632Z,21.05
2022-09-12T09:30:26.271Z,21.01
2022-09-12T09:32:57.864Z,21.29
2022-09-12T09:35:38.463Z,21.08
2022-09-12T09:38:19.075Z,21.62
2022-09-12T09:40:56.061Z,21.74
2022-09-12T09:43:26.291Z,21.81
2022-09-12T09:45:53.914Z,21.61
2022-09-12T09:48:25.401Z,21.14
2022-09-12T09:50:53.190Z,21.10
2022-09-12T09:53:34.158Z,21.31
2022-09-12T09:56:07.730Z,21.01
2022-09-12T09:58:37.333Z,21.45
2022-09-12T10:01:06.672Z,21.52
2022-09-12T10:03:37.838Z,21.69
2022-09-12T10:06:21.410Z,21.93
2022-09-12T10:08:50.160Z,22.19
2022-09-12T10:11:21.177Z,22.27
2022-09-12T10:13:56.552Z,22.18
2022-09-12T10:16:25.961Z,22.12
2022-09-12T10:18:54.408Z,22.14
2022-09-12T10:21:28.553Z,22.24
2022-09-12T10:24:06.374Z,22.36
2022-09-12T10:26:37.830Z,22.25
2022-09-12T10:29:14.826Z,22.16
2022-09-12T10:31:51.787Z,22.33
2022-09-12T10:34:27.086Z,22.30
2022-09-12T10:37:00.664Z,22.31
2022-09-12T10:39:28.754Z,22.34
2022-09-12T10:41:56.247Z,22.29
2022-09-12T10:44:28.491Z,22.30
2022-09-12T10:46:57.175Z,22.00
2022-09-12T10:49:28.508Z,21.58
2022-09-12T10:51:57.300Z,21.58
2022-09-12T10:54:27.255Z,21.33
2022-09-12T10:57:28.520Z,21.21
2022-09-12T11:00:12.832Z,20.90
2022-09-12T11:02:51.503Z,21.14
2022-09-12T11:05:33.677Z,21.07
2022-09-12T11:08:12.141Z,20.87
2022-09-12T11:10:48.388Z,20.85
2022-09-12T11:13:25.524Z,20.90
2022-09-12T11:16:06.313Z,20.87
2022-09-12T11:18:48.286Z,20.88
2022-09-12T11:24:19.725Z,20.85
2022-09-12T11:26:51.155Z,21.04
2022-09-12T11:29:30.394Z,20.82
2022-09-12T11:32:12.122Z,20.89
2022-09-12T11:34:48.435Z,20.95
2022-09-12T11:37:34.796Z,21.11
2022-09-12T11:40:13.783Z,21.10
2022-09-12T11:42:41.880Z,21.18
2022-09-12T11:45:17.009Z,21.21
2022-09-12T11:47:52.258Z,21.30
2022-09-12T11:50:23.860Z,21.45
2022-09-12T11:52:53.273Z,21.47
2022-09-12T11:55:25.828Z,21.52
2022-09-12T11:57:54.938Z,21.59
2022-09-12T12:00:24.684Z,21.57
2022-09-12T12:02:59.118Z,21.62
2022-09-12T12:05:30.656Z,21.62
2022-09-12T12:08:00.215Z,21.78
2022-09-12T12:10:35.517Z,21.61
2022-09-12T12:13:05.644Z,21.30
2022-09-12T12:15:36.373Z,21.13
2022-09-12T12:18:08.183Z,20.95
2022-09-12T12:20:36.267Z,21.02
2022-09-12T12:23:04.425Z,21.22
2022-09-12T12:25:42.067Z,22.08
2022-09-12T12:28:09.574Z,22.29
2022-09-12T12:31:01.405Z,22.54
2022-09-12T12:34:14.290Z,22.57
2022-09-12T12:36:43.353Z,22.71
2022-09-12T12:39:58.509Z,22.82
2022-09-12T12:43:02.191Z,22.82
2022-09-12T12:46:02.589Z,22.89
2022-09-12T12:48:35.364Z,22.92
2022-09-12T12:51:38.476Z,22.78
2022-09-12T12:54:33.403Z,22.88
2022-09-12T12:57:31.051Z,22.95
2022-09-12T13:00:02.361Z,23.00
2022-09-12T13:02:33.455Z,22.87
2022-09-12T13:05:04.979Z,22.90
2022-09-12T13:07:35.985Z,22.93
2022-09-12T13:10:07.039Z,22.99
2022-09-12T13:12:38.129Z,23.07
2022-09-12T13:15:45.065Z,23.02
2022-09-12T13:18:15.692Z,23.02
2022-09-12T13:20:49.496Z,23.06
2022-09-12T13:23:25.174Z,23.06
2022-09-12T13:25:55.651Z,23.13
2022-09-12T13:28:23.353Z,23.12
2022-09-12T13:30:59.206Z,23.13
2022-09-12T13:33:33.955Z,23.21
2022-09-12T13:36:16.891Z,23.15
2022-09-12T13:38:56.662Z,23.23
2022-09-12T13:41:33.562Z,23.19
2022-09-12T13:44:02.168Z,23.18
2022-09-12T13:46:33.233Z,23.23
2022-09-12T13:49:06.504Z,23.26
2022-09-12T13:51:34.058Z,23.24
2022-09-12T13:54:05.187Z,23.23
2022-09-12T13:56:34.164Z,23.25
2022-09-12T13:59:02.719Z,23.25
2022-09-12T14:01:39.628Z,23.24
2022-09-12T14:04:16.467Z,23.24
2022-09-12T14:06:46.642Z,23.23
2022-09-12T14:09:15.607Z,23.23
2022-09-12T14:11:44.561Z,23.24
2022-09-12T14:14:22.206Z,23.21
2022-09-12T14:16:50.044Z,23.25
2022-09-12T14:19:18.044Z,23.08
2022-09-12T14:21:46.747Z,23.24
2022-09-12T14:24:14.584Z,23.23
2022-09-12T14:26:44.847Z,23.25
2022-09-12T14:29:17.276Z,23.27
2022-09-12T14:31:45.020Z,23.27
2022-09-12T14:34:14.753Z,23.33
2022-09-12T14:36:45.911Z,23.32
2022-09-12T14:39:23.213Z,23.28
2022-09-12T14:42:00.705Z,23.36
2022-09-12T14:44:30.587Z,23.41
2022-09-12T14:46:59.232Z,23.41
2022-09-12T14:49:31.884Z,23.41
2022-09-12T14:52:00.938Z,23.39
2022-09-12T14:54:40.839Z,23.33
2022-09-12T14:57:33.811Z,23.44
2022-09-12T15:00:17.614Z,23.41
2022-09-12T15:02:45.684Z,23.46
2022-09-12T15:05:20.129Z,23.42
2022-09-12T15:07:57.394Z,23.41
2022-09-12T15:10:28.155Z,23.45
2022-09-12T15:13:21.894Z,23.46
2022-09-12T15:15:51.920Z,23.42
2022-09-12T15:18:20.463Z,23.45
2022-09-12T15:20:51.222Z,23.46
2022-09-12T15:23:29.814Z,23.42
2022-09-12T15:25:57.356Z,23.47
2022-09-12T15:28:26.557Z,23.51
2022-09-12T15:30:56.166Z,23.54
2022-09-12T15:33:24.060Z,23.56
2022-09-12T15:35:52.464Z,23.50
2022-09-12T15:38:24.271Z,23.54
2022-09-12T15:40:53.693Z,23.54
2022-09-12T15:43:22.270Z,23.60
2022-09-12T15:45:51.321Z,23.60
2022-09-12T15:48:19.526Z,23.64
2022-09-12T15:50:47.107Z,23.62
2022-09-12T15:53:15.770Z,23.67
2022-09-12T15:55:43.917Z,23.69
2022-09-12T15:58:11.805Z,23.66
2022-09-12T16:00:39.201Z,23.68
2022-09-12T16:03:20.984Z,23.64
2022-09-12T16:05:48.561Z,23.68
2022-09-12T16:08:16.378Z,23.66
2022-09-12T16:10:44.667Z,23.72
2022-09-12T16:13:12.099Z,23.73
2022-09-12T16:15:39.580Z,23.76
2022-09-12T16:18:08.552Z,23.75
2022-09-12T16:20:36.147Z,23.71
2022-09-12T16:23:03.716Z,23.72
2022-09-12T16:25:31.072Z,23.77
2022-09-12T16:27:58.690Z,23.75
2022-09-12T16:30:26.822Z,23.77
2022-09-12T16:32:54.268Z,23.77
2022-09-12T16:35:23.103Z,23.77
2022-09-12T16:37:51.079Z,23.73
2022-09-12T16:40:18.882Z,23.77
2022-09-12T16:42:46.708Z,23.82
2022-09-12T16:45:14.299Z,23.77
2022-09-12T16:47:41.788Z,23.80
2022-09-12T16:50:09.729Z,23.75
2022-09-12T16:52:38.520Z,23.80
2022-09-12T16:55:06.916Z,23.77
2022-09-12T16:57:34.332Z,23.80
2022-09-12T17:00:01.914Z,23.74
2022-09-12T17:02:29.352Z,23.79
2022-09-12T17:04:56.901Z,23.78
2022-09-12T17:07:24.263Z,23.78
2022-09-12T17:09:53.195Z,23.83
2022-09-12T17:12:20.599Z,23.79
2022-09-12T17:14:48.045Z,23.79
2022-09-12T17:17:15.570Z,23.78
2022-09-12T17:19:42.921Z,23.80
2022-09-12T17:22:10.415Z,23.83
2022-09-12T17:24:37.856Z,23.87
2022-09-12T17:27:06.771Z,23.82
2022-09-12T17:29:34.131Z,23.79
2022-09-12T17:32:01.963Z,23.84
2022-09-12T17:34:29.647Z,23.85
2022-09-12T17:36:56.967Z,23.88
2022-09-12T17:39:24.412Z,23.83
2022-09-12T17:41:51.826Z,23.90
2022-09-12T17:44:20.817Z,23.86
2022-09-12T17:46:48.546Z,23.84
2022-09-12T17:49:17.708Z,23.83
2022-09-12T17:51:45.170Z,23.86
2022-09-12T17:54:14.427Z,23.85
2022-09-12T17:56:42.868Z,23.88
2022-09-12T17:59:14.018Z,23.87
2022-09-12T18:01:42.978Z,23.88
2022-09-12T18:04:10.999Z,23.87
2022-09-12T18:06:38.755Z,23.88
2022-09-12T18:09:08.942Z,23.91
2022-09-12T18:11:36.993Z,23.90
2022-09-12T18:14:04.373Z,23.95
2022-09-12T18:16:31.869Z,23.92
2022-09-12T18:19:00.808Z,23.96
2022-09-12T18:21:28.742Z,23.91
2022-09-12T18:23:56.178Z,23.94
2022-09-12T18:26:23.535Z,23.89
2022-09-12T18:28:51.144Z,23.94
2022-09-12T18:31:20.401Z,23.92
2022-09-12T18:33:49.111Z,23.98
2022-09-12T18:36:19.573Z,23.94
2022-09-12T18:38:48.432Z,23.97
2022-09-12T18:41:17.434Z,24.00
2022-09-12T18:43:45.302Z,23.92
2022-09-12T18:46:15.408Z,23.90
2022-09-12T18:48:43.483Z,23.95
2022-09-12T18:51:12.532Z,23.90
2022-09-12T18:53:43.091Z,23.99
2022-09-12T18:56:14.374Z,24.00
2022-09-12T18:58:43.412Z,23.94
2022-09-12T19:01:12.371Z,24.00
2022-09-12T19:03:39.962Z,23.96
2022-09-12T19:06:09.461Z,24.00
2022-09-12T19:08:37.648Z,24.00
2022-09-12T19:11:07.232Z,24.05
2022-09-12T19:13:36.808Z,24.00
2022-09-12T19:16:05.942Z,24.05
2022-09-12T19:18:33.384Z,24.00
2022-09-12T19:21:00.857Z,24.03
2022-09-12T19:23:30.159Z,24.04
2022-09-12T19:25:58.163Z,24.01
2022-09-12T19:28:27.951Z,24.04
2022-09-12T19:30:55.483Z,24.00
2022-09-12T19:33:24.094Z,24.01
2022-09-12T19:35:51.780Z,24.02
2022-09-12T19:38:19.358Z,24.03
2022-09-12T19:40:56.214Z,24.04
2022-09-12T19:43:23.865Z,24.08
2022-09-12T19:45:53.058Z,24.03
2022-09-12T19:48:21.443Z,24.04
2022-09-12T19:50:48.924Z,24.01
2022-09-12T19:53:17.988Z,23.98
2022-09-12T19:55:46.054Z,24.00
2022-09-12T19:58:13.610Z,24.05
2022-09-12T20:00:41.464Z,24.03
2022-09-12T20:03:10.311Z,24.00
2022-09-12T20:05:42.531Z,24.01
2022-09-12T20:08:10.340Z,23.97
2022-09-12T20:10:37.760Z,23.95
2022-09-12T20:13:06.132Z,24.02
2022-09-12T20:15:33.496Z,24.00
2022-09-12T20:18:01.024Z,24.04
2022-09-12T20:20:31.288Z,24.05
2022-09-12T20:22:58.824Z,24.09
2022-09-12T20:25:26.440Z,24.06
2022-09-12T20:27:58.124Z,24.05
2022-09-12T20:30:27.698Z,24.05
2022-09-12T20:32:55.131Z,24.03
2022-09-12T20:35:23.040Z,24.06
2022-09-12T20:37:51.938Z,24.06
2022-09-12T20:40:19.653Z,24.08
2022-09-12T20:42:47.103Z,24.09
2022-09-12T20:45:14.718Z,24.09
2022-09-12T20:47:42.159Z,24.09
2022-09-12T20:50:10.218Z,24.12
2022-09-12T20:52:37.687Z,24.09
2022-09-12T20:55:08.272Z,24.08
2022-09-12T20:57:35.655Z,24.13
2022-09-12T21:00:03.764Z,24.13
2022-09-12T21:02:31.297Z,24.11
2022-09-12T21:04:58.780Z,24.08
2022-09-12T21:07:26.229Z,24.06
2022-09-12T21:09:53.628Z,24.02
2022-09-12T21:12:22.490Z,24.02
2022-09-12T21:14:49.923Z,24.01
2022-09-12T21:17:17.373Z,24.07
2022-09-12T21:19:44.826Z,24.08
2022-09-12T21:22:12.260Z,24.15
2022-09-12T21:24:39.663Z,24.19
2022-09-12T21:27:07.047Z,24.15
2022-09-12T21:29:35.874Z,24.17
2022-09-12T21:32:03.224Z,24.10
2022-09-12T21:34:30.651Z,24.10
2022-09-12T21:36:58.010Z,24.10
2022-09-12T21:39:25.440Z,24.07
2022-09-12T21:41:53.030Z,24.07
2022-09-12T21:44:20.376Z,24.04
2022-09-12T21:46:49.239Z,24.05
2022-09-12T21:49:16.634Z,24.04
2022-09-12T21:51:43.959Z,24.08
2022-09-12T21:54:11.521Z,24.07
2022-09-12T21:56:38.872Z,24.04
2022-09-12T21:59:06.223Z,24.07
2022-09-12T22:01:33.620Z,24.14
2022-09-12T22:04:02.934Z,24.10
2022-09-12T22:06:30.283Z,24.04
2022-09-12T22:08:57.674Z,24.06
2022-09-12T22:11:25.087Z,24.10
2022-09-12T22:13:52.504Z,24.09
2022-09-12T22:16:20.028Z,24.09
2022-09-12T22:18:47.468Z,24.05
2022-09-12T22:21:17.605Z,24.04
2022-09-12T22:23:45.378Z,24.05
2022-09-12T22:26:13.113Z,24.06
2022-09-12T22:28:40.597Z,24.10
2022-09-12T22:31:10.746Z,24.04
2022-09-12T22:33:38.182Z,24.10
2022-09-12T22:36:06.192Z,24.08
2022-09-12T22:38:34.995Z,24.09
2022-09-12T22:41:06.655Z,24.10
2022-09-12T22:43:34.944Z,24.08
2022-09-12T22:46:05.303Z,24.06
2022-09-12T22:48:32.751Z,24.05
2022-09-12T22:51:00.655Z,24.03
2022-09-12T22:53:28.091Z,24.05
2022-09-12T22:55:56.931Z,24.07
2022-09-12T22:58:24.354Z,24.06
2022-09-12T23:00:52.335Z,24.08
2022-09-12T23:03:20.683Z,24.07
2022-09-12T23:05:48.684Z,24.05
2022-09-12T23:08:17.440Z,24.04
2022-09-12T23:10:45.131Z,24.07
2022-09-12T23:13:14.083Z,24.02
2022-09-12T23:15:41.563Z,23.92
2022-09-12T23:18:08.967Z,23.90
2022-09-12T23:20:36.353Z,23.88
2022-09-12T23:23:03.800Z,23.88
2022-09-12T23:25:31.155Z,23.88
2022-09-12T23:27:58.490Z,23.86
2022-09-12T23:30:27.398Z,23.83
2022-09-12T23:32:56.301Z,23.84
2022-09-12T23:35:23.707Z,23.82
2022-09-12T23:37:51.543Z,23.83
2022-09-12T23:40:18.940Z,23.82
2022-09-12T23:42:46.362Z,23.83
2022-09-12T23:45:13.844Z,23.80
2022-09-12T23:47:43.227Z,23.81
2022-09-12T23:50:10.695Z,23.79
2022-09-12T23:52:38.050Z,23.87
2022-09-12T23:55:06.322Z,23.80
2022-09-12T23:57:33.679Z,23.89
